Gantt, Alabama
Current Conditions -  °F | °C
As of 2:56 AM on Thursday 27 Nov 2014 (Local Time) from K79J Reporting Station
Clear Clear  
Wind Chill: 47°   Ceiling: Unl
Heat Index: 47°   Visibility: 10mi
Dew Point: 39°   Wind: 3mph
Humidity: 74%   Direction: 270°W
Pressure: 30.23"   Gusts: NA
Location:  31.41°N, 86.48°W
Report Text: K79J 270856Z AUTO 27003KT 10SM CLR 08/04 A3023 RMK AO2 SLP233 T00830039 53012
Loading
Personal Weather Stations






























Interactive Weather Map New forecast layout! Learn more

10-Day Weather Forecast

Advertisements
Track Severe Weather on mobile